Terminal Aerodrome Forecast
Issued by NWS

Home | Current Version | Previous Version | Text Only | Print | Product List | Glossary On
Versions: 1 2 3 4 5 6 7 8 9 10 11 12 13
000
FTUS45 KRIW 232300
TAFBPI
TAF
KBPI 232334Z 2400/2424 34008KT P6SM FEW070 SCT150
     FM240200 35005KT P6SM SKC
     FM241900 16006KT P6SM FEW080=

USA.gov is the U.S. government's official web portal to all federal, state and local government web resources and services.